sensor_id;sensor_type;location;lat;lon;timestamp;temperature;humidity
26745;DHT22;14342;50.960;13.880;2023-01-01T00:00:11;17.70;99.90
26745;DHT22;14342;50.960;13.880;2023-01-01T00:01:13;17.70;99.90
26745;DHT22;14342;50.960;13.880;2023-01-01T00:02:14;17.80;99.90
26745;DHT22;14342;50.960;13.880;2023-01-01T00:03:16;17.80;99.90
26745;DHT22;14342;50.960;13.880;2023-01-01T00:04:16;17.90;99.90
26745;DHT22;14342;50.960;13.880;2023-01-01T00:05:18;17.90;99.90
26745;DHT22;14342;50.960;13.880;2023-01-01T00:06:20;17.80;99.90
26745;DHT22;14342;50.960;13.880;2023-01-01T00:07:21;17.70;99.90
26745;DHT22;14342;50.960;13.880;2023-01-01T00:08:22;17.70;99.90
26745;DHT22;14342;50.960;13.880;2023-01-01T00:09:24;17.70;99.90
26745;DHT22;14342;50.960;13.880;2023-01-01T00:10:44;17.70;99.90
26745;DHT22;14342;50.960;13.880;2023-01-01T00:11:45;17.70;99.90
26745;DHT22;14342;50.960;13.880;2023-01-01T00:12:47;17.70;99.90
26745;DHT22;14342;50.960;13.880;2023-01-01T00:13:48;17.70;99.90
26745;DHT22;14342;50.960;13.880;2023-01-01T00:14:50;17.70;99.90
26745;DHT22;14342;50.960;13.880;2023-01-01T00:15:50;17.70;99.90
26745;DHT22;14342;50.960;13.880;2023-01-01T00:16:52;17.70;99.90
26745;DHT22;14342;50.960;13.880;2023-01-01T00:17:53;17.70;99.90
26745;DHT22;14342;50.960;13.880;2023-01-01T00:18:55;17.60;99.90
26745;DHT22;14342;50.960;13.880;2023-01-01T00:19:55;17.60;99.90
26745;DHT22;14342;50.960;13.880;2023-01-01T00:21:00;17.70;99.90
26745;DHT22;14342;50.960;13.880;2023-01-01T00:22:02;17.70;99.90
26745;DHT22;14342;50.960;13.880;2023-01-01T00:23:03;17.80;99.90
26745;DHT22;14342;50.960;13.880;2023-01-01T00:24:04;17.80;99.90
26745;DHT22;14342;50.960;13.880;2023-01-01T00:25:06;17.80;99.90
26745;DHT22;14342;50.960;13.880;2023-01-01T00:26:09;17.80;99.90
26745;DHT22;14342;50.960;13.880;2023-01-01T00:27:10;17.80;99.90
26745;DHT22;14342;50.960;13.880;2023-01-01T00:28:11;17.80;99.90
26745;DHT22;14342;50.960;13.880;2023-01-01T00:29:13;17.80;99.90
26745;DHT22;14342;50.960;13.880;2023-01-01T00:30:14;17.70;99.90
26745;DHT22;14342;50.960;13.880;2023-01-01T00:31:16;17.70;99.90
26745;DHT22;14342;50.960;13.880;2023-01-01T00:32:16;17.80;99.90
26745;DHT22;14342;50.960;13.880;2023-01-01T00:33:18;17.70;99.90
26745;DHT22;14342;50.960;13.880;2023-01-01T00:34:20;17.60;99.90
26745;DHT22;14342;50.960;13.880;2023-01-01T00:35:20;17.60;99.90
26745;DHT22;14342;50.960;13.880;2023-01-01T00:36:22;17.70;99.90
26745;DHT22;14342;50.960;13.880;2023-01-01T00:37:25;17.70;99.90
26745;DHT22;14342;50.960;13.880;2023-01-01T00:38:27;17.60;99.90
26745;DHT22;14342;50.960;13.880;2023-01-01T00:39:27;17.50;99.90
26745;DHT22;14342;50.960;13.880;2023-01-01T00:40:29;17.70;99.90
26745;DHT22;14342;50.960;13.880;2023-01-01T00:41:32;17.50;99.90
26745;DHT22;14342;50.960;13.880;2023-01-01T00:42:32;17.50;99.90
26745;DHT22;14342;50.960;13.880;2023-01-01T00:43:34;17.50;99.90
26745;DHT22;14342;50.960;13.880;2023-01-01T00:44:35;17.50;99.90
26745;DHT22;14342;50.960;13.880;2023-01-01T00:45:36;17.80;99.90
26745;DHT22;14342;50.960;13.880;2023-01-01T00:46:37;17.50;99.90
26745;DHT22;14342;50.960;13.880;2023-01-01T00:47:38;17.40;99.90
26745;DHT22;14342;50.960;13.880;2023-01-01T00:48:39;17.40;99.90
26745;DHT22;14342;50.960;13.880;2023-01-01T00:49:40;17.40;99.90
26745;DHT22;14342;50.960;13.880;2023-01-01T00:50:42;17.40;99.90
26745;DHT22;14342;50.960;13.880;2023-01-01T00:51:43;17.50;99.90
26745;DHT22;14342;50.960;13.880;2023-01-01T00:52:44;17.50;99.90
26745;DHT22;14342;50.960;13.880;2023-01-01T00:53:46;17.50;99.90
26745;DHT22;14342;50.960;13.880;2023-01-01T00:54:47;17.50;99.90
26745;DHT22;14342;50.960;13.880;2023-01-01T00:55:48;17.50;99.90
26745;DHT22;14342;50.960;13.880;2023-01-01T00:56:52;17.50;99.90
26745;DHT22;14342;50.960;13.880;2023-01-01T00:57:52;17.70;99.90
26745;DHT22;14342;50.960;13.880;2023-01-01T00:58:54;17.50;99.90
26745;DHT22;14342;50.960;13.880;2023-01-01T00:59:54;17.50;99.90
26745;DHT22;14342;50.960;13.880;2023-01-01T01:00:56;17.50;99.90
26745;DHT22;14342;50.960;13.880;2023-01-01T01:01:57;17.50;99.90
26745;DHT22;14342;50.960;13.880;2023-01-01T01:02:58;17.40;99.90
26745;DHT22;14342;50.960;13.880;2023-01-01T01:03:59;17.40;99.90
26745;DHT22;14342;50.960;13.880;2023-01-01T01:05:00;17.40;99.90
26745;DHT22;14342;50.960;13.880;2023-01-01T01:06:06;17.40;99.90
26745;DHT22;14342;50.960;13.880;2023-01-01T01:07:09;17.40;99.90
26745;DHT22;14342;50.960;13.880;2023-01-01T01:08:09;17.40;99.90
26745;DHT22;14342;50.960;13.880;2023-01-01T01:09:11;17.40;99.90
26745;DHT22;14342;50.960;13.880;2023-01-01T01:10:11;17.40;99.90
26745;DHT22;14342;50.960;13.880;2023-01-01T01:11:14;17.60;99.90
26745;DHT22;14342;50.960;13.880;2023-01-01T01:12:17;17.30;99.90
26745;DHT22;14342;50.960;13.880;2023-01-01T01:13:18;17.30;99.90
26745;DHT22;14342;50.960;13.880;2023-01-01T01:14:19;17.30;99.90
26745;DHT22;14342;50.960;13.880;2023-01-01T01:15:20;17.30;99.90
26745;DHT22;14342;50.960;13.880;2023-01-01T01:16:22;17.30;99.90
26745;DHT22;14342;50.960;13.880;2023-01-01T01:17:23;17.30;99.90
26745;DHT22;14342;50.960;13.880;2023-01-01T01:18:25;17.30;99.90
26745;DHT22;14342;50.960;13.880;2023-01-01T01:19:26;17.30;99.90
26745;DHT22;14342;50.960;13.880;2023-01-01T01:20:27;17.30;99.90
26745;DHT22;14342;50.960;13.880;2023-01-01T01:21:29;17.30;99.90
26745;DHT22;14342;50.960;13.880;2023-01-01T01:22:31;17.30;99.90
26745;DHT22;14342;50.960;13.880;2023-01-01T01:23:34;17.30;99.90
26745;DHT22;14342;50.960;13.880;2023-01-01T01:24:35;17.20;99.90
26745;DHT22;14342;50.960;13.880;2023-01-01T01:25:36;17.20;99.90
26745;DHT22;14342;50.960;13.880;2023-01-01T01:26:38;17.20;99.90
26745;DHT22;14342;50.960;13.880;2023-01-01T01:27:41;17.30;99.90
26745;DHT22;14342;50.960;13.880;2023-01-01T01:28:41;17.30;99.90
26745;DHT22;14342;50.960;13.880;2023-01-01T01:29:43;17.30;99.90
26745;DHT22;14342;50.960;13.880;2023-01-01T01:30:44;17.30;99.90
26745;DHT22;14342;50.960;13.880;2023-01-01T01:31:45;17.30;99.90
26745;DHT22;14342;50.960;13.880;2023-01-01T01:32:47;17.30;99.90
26745;DHT22;14342;50.960;13.880;2023-01-01T01:33:48;17.30;99.90
26745;DHT22;14342;50.960;13.880;2023-01-01T01:34:49;17.30;99.90
26745;DHT22;14342;50.960;13.880;2023-01-01T01:35:51;17.30;99.90
26745;DHT22;14342;50.960;13.880;2023-01-01T01:36:51;17.30;99.90
26745;DHT22;14342;50.960;13.880;2023-01-01T01:37:53;17.20;99.90
26745;DHT22;14342;50.960;13.880;2023-01-01T01:38:54;17.30;99.90
26745;DHT22;14342;50.960;13.880;2023-01-01T01:39:56;17.30;99.90
26745;DHT22;14342;50.960;13.880;2023-01-01T01:40:56;17.30;99.90
26745;DHT22;14342;50.960;13.880;2023-01-01T01:41:58;17.30;99.90
26745;DHT22;14342;50.960;13.880;2023-01-01T01:43:03;17.30;99.90
26745;DHT22;14342;50.960;13.880;2023-01-01T01:44:42;17.30;99.90
26745;DHT22;14342;50.960;13.880;2023-01-01T01:45:25;17.30;99.90
26745;DHT22;14342;50.960;13.880;2023-01-01T01:46:28;17.30;99.90
26745;DHT22;14342;50.960;13.880;2023-01-01T01:47:31;17.30;99.90
26745;DHT22;14342;50.960;13.880;2023-01-01T01:48:36;17.30;99.90
26745;DHT22;14342;50.960;13.880;2023-01-01T01:49:39;17.20;99.90
26745;DHT22;14342;50.960;13.880;2023-01-01T01:50:40;17.20;99.90
26745;DHT22;14342;50.960;13.880;2023-01-01T01:51:42;17.30;99.90
26745;DHT22;14342;50.960;13.880;2023-01-01T01:52:46;17.30;99.90
26745;DHT22;14342;50.960;13.880;2023-01-01T01:53:48;17.20;99.90
26745;DHT22;14342;50.960;13.880;2023-01-01T01:54:50;17.20;99.90
26745;DHT22;14342;50.960;13.880;2023-01-01T01:55:52;17.20;99.90
26745;DHT22;14342;50.960;13.880;2023-01-01T01:56:56;17.30;99.90
26745;DHT22;14342;50.960;13.880;2023-01-01T01:57:58;17.20;99.90
26745;DHT22;14342;50.960;13.880;2023-01-01T01:59:01;17.20;99.90
26745;DHT22;14342;50.960;13.880;2023-01-01T02:00:03;17.20;99.90
26745;DHT22;14342;50.960;13.880;2023-01-01T02:01:04;17.20;99.90
26745;DHT22;14342;50.960;13.880;2023-01-01T02:02:06;17.20;99.90
26745;DHT22;14342;50.960;13.880;2023-01-01T02:03:10;17.30;99.90
26745;DHT22;14342;50.960;13.880;2023-01-01T02:04:12;17.30;99.90
26745;DHT22;14342;50.960;13.880;2023-01-01T02:05:13;17.30;99.90
26745;DHT22;14342;50.960;13.880;2023-01-01T02:06:15;17.20;99.90
26745;DHT22;14342;50.960;13.880;2023-01-01T02:07:16;17.30;99.90
26745;DHT22;14342;50.960;13.880;2023-01-01T02:08:17;17.20;99.90
26745;DHT22;14342;50.960;13.880;2023-01-01T02:09:19;17.20;99.90
26745;DHT22;14342;50.960;13.880;2023-01-01T02:10:20;17.10;99.90
26745;DHT22;14342;50.960;13.880;2023-01-01T02:11:22;17.20;99.90
26745;DHT22;14342;50.960;13.880;2023-01-01T02:12:23;17.30;99.90
26745;DHT22;14342;50.960;13.880;2023-01-01T02:13:24;17.30;99.90
26745;DHT22;14342;50.960;13.880;2023-01-01T02:14:27;17.30;99.90
26745;DHT22;14342;50.960;13.880;2023-01-01T02:15:29;17.30;99.90
26745;DHT22;14342;50.960;13.880;2023-01-01T02:16:32;17.20;99.90
26745;DHT22;14342;50.960;13.880;2023-01-01T02:17:36;17.20;99.90
26745;DHT22;14342;50.960;13.880;2023-01-01T02:18:42;17.20;99.90
26745;DHT22;14342;50.960;13.880;2023-01-01T02:19:50;17.20;99.90
26745;DHT22;14342;50.960;13.880;2023-01-01T02:20:56;17.20;99.90
26745;DHT22;14342;50.960;13.880;2023-01-01T02:22:01;17.20;99.90
26745;DHT22;14342;50.960;13.880;2023-01-01T02:23:21;17.20;99.90
26745;DHT22;14342;50.960;13.880;2023-01-01T02:24:41;17.20;99.90
26745;DHT22;14342;50.960;13.880;2023-01-01T02:25:48;17.30;99.90
26745;DHT22;14342;50.960;13.880;2023-01-01T02:26:53;17.30;99.90
26745;DHT22;14342;50.960;13.880;2023-01-01T02:27:57;17.30;99.90
26745;DHT22;14342;50.960;13.880;2023-01-01T02:29:02;17.20;99.90
26745;DHT22;14342;50.960;13.880;2023-01-01T02:30:05;17.10;99.90
26745;DHT22;14342;50.960;13.880;2023-01-01T02:31:07;17.10;99.90
26745;DHT22;14342;50.960;13.880;2023-01-01T02:32:10;17.10;99.90
26745;DHT22;14342;50.960;13.880;2023-01-01T02:33:13;17.10;99.90
26745;DHT22;14342;50.960;13.880;2023-01-01T02:34:18;17.10;99.90
26745;DHT22;14342;50.960;13.880;2023-01-01T02:35:20;17.20;99.90
26745;DHT22;14342;50.960;13.880;2023-01-01T02:36:36;17.10;99.90
26745;DHT22;14342;50.960;13.880;2023-01-01T02:37:39;17.10;99.90
26745;DHT22;14342;50.960;13.880;2023-01-01T02:38:42;17.10;99.90
26745;DHT22;14342;50.960;13.880;2023-01-01T02:39:46;17.00;99.90
26745;DHT22;14342;50.960;13.880;2023-01-01T02:40:49;17.10;99.90
26745;DHT22;14342;50.960;13.880;2023-01-01T02:41:51;17.10;99.90
26745;DHT22;14342;50.960;13.880;2023-01-01T02:42:53;17.10;99.90
26745;DHT22;14342;50.960;13.880;2023-01-01T02:43:54;17.10;99.90
26745;DHT22;14342;50.960;13.880;2023-01-01T02:44:57;17.10;99.90
26745;DHT22;14342;50.960;13.880;2023-01-01T02:45:59;17.10;99.90
26745;DHT22;14342;50.960;13.880;2023-01-01T02:47:05;17.00;99.90
26745;DHT22;14342;50.960;13.880;2023-01-01T02:48:33;17.00;99.90
26745;DHT22;14342;50.960;13.880;2023-01-01T02:49:29;17.00;99.90
26745;DHT22;14342;50.960;13.880;2023-01-01T02:50:30;17.00;99.90
26745;DHT22;14342;50.960;13.880;2023-01-01T02:51:34;17.00;99.90
26745;DHT22;14342;50.960;13.880;2023-01-01T02:52:55;17.00;99.90
26745;DHT22;14342;50.960;13.880;2023-01-01T02:54:04;17.00;99.90
26745;DHT22;14342;50.960;13.880;2023-01-01T02:55:10;17.00;99.90
26745;DHT22;14342;50.960;13.880;2023-01-01T02:56:17;17.00;99.90
26745;DHT22;14342;50.960;13.880;2023-01-01T02:57:23;17.00;99.90
26745;DHT22;14342;50.960;13.880;2023-01-01T02:58:29;17.00;99.90
26745;DHT22;14342;50.960;13.880;2023-01-01T02:59:53;16.90;99.70
26745;DHT22;14342;50.960;13.880;2023-01-01T03:01:16;17.00;99.90
26745;DHT22;14342;50.960;13.880;2023-01-01T03:02:21;17.00;99.50
26745;DHT22;14342;50.960;13.880;2023-01-01T03:03:25;17.00;99.60
26745;DHT22;14342;50.960;13.880;2023-01-01T03:04:30;17.00;99.70
26745;DHT22;14342;50.960;13.880;2023-01-01T03:05:36;17.00;99.40
26745;DHT22;14342;50.960;13.880;2023-01-01T03:07:01;17.00;99.10
26745;DHT22;14342;50.960;13.880;2023-01-01T03:08:06;17.00;99.20
26745;DHT22;14342;50.960;13.880;2023-01-01T03:09:11;17.00;99.00
26745;DHT22;14342;50.960;13.880;2023-01-01T03:10:14;17.00;98.90
26745;DHT22;14342;50.960;13.880;2023-01-01T03:11:18;17.00;98.80
26745;DHT22;14342;50.960;13.880;2023-01-01T03:12:22;17.00;98.60
26745;DHT22;14342;50.960;13.880;2023-01-01T03:13:39;17.10;98.60
26745;DHT22;14342;50.960;13.880;2023-01-01T03:14:43;17.00;98.40
26745;DHT22;14342;50.960;13.880;2023-01-01T03:15:48;17.00;98.60
26745;DHT22;14342;50.960;13.880;2023-01-01T03:16:51;17.00;98.50
26745;DHT22;14342;50.960;13.880;2023-01-01T03:17:55;17.00;98.30
26745;DHT22;14342;50.960;13.880;2023-01-01T03:18:57;17.00;98.60
26745;DHT22;14342;50.960;13.880;2023-01-01T03:20:13;17.00;98.20
26745;DHT22;14342;50.960;13.880;2023-01-01T03:21:16;17.10;98.20
26745;DHT22;14342;50.960;13.880;2023-01-01T03:22:22;17.10;98.10
26745;DHT22;14342;50.960;13.880;2023-01-01T03:23:24;17.10;97.90
26745;DHT22;14342;50.960;13.880;2023-01-01T03:24:28;17.10;98.10
26745;DHT22;14342;50.960;13.880;2023-01-01T03:25:31;17.00;97.80
26745;DHT22;14342;50.960;13.880;2023-01-01T03:26:34;17.10;97.90
26745;DHT22;14342;50.960;13.880;2023-01-01T03:27:36;17.00;97.70
26745;DHT22;14342;50.960;13.880;2023-01-01T03:28:42;17.00;97.90
26745;DHT22;14342;50.960;13.880;2023-01-01T03:29:44;17.00;97.60
26745;DHT22;14342;50.960;13.880;2023-01-01T03:30:46;17.00;97.80
26745;DHT22;14342;50.960;13.880;2023-01-01T03:31:46;17.00;97.70
26745;DHT22;14342;50.960;13.880;2023-01-01T03:32:51;17.00;97.50
26745;DHT22;14342;50.960;13.880;2023-01-01T03:34:04;17.00;97.30
26745;DHT22;14342;50.960;13.880;2023-01-01T03:35:06;17.00;97.50
26745;DHT22;14342;50.960;13.880;2023-01-01T03:36:09;17.00;97.40
26745;DHT22;14342;50.960;13.880;2023-01-01T03:37:13;17.00;97.60
26745;DHT22;14342;50.960;13.880;2023-01-01T03:38:16;17.00;97.40
26745;DHT22;14342;50.960;13.880;2023-01-01T03:39:19;17.00;97.30
26745;DHT22;14342;50.960;13.880;2023-01-01T03:40:23;16.90;97.20
26745;DHT22;14342;50.960;13.880;2023-01-01T03:41:26;17.00;97.30
26745;DHT22;14342;50.960;13.880;2023-01-01T03:42:31;16.90;97.40
26745;DHT22;14342;50.960;13.880;2023-01-01T03:43:36;17.00;97.30
26745;DHT22;14342;50.960;13.880;2023-01-01T03:44:40;17.00;97.10
26745;DHT22;14342;50.960;13.880;2023-01-01T03:45:45;17.00;97.10
26745;DHT22;14342;50.960;13.880;2023-01-01T03:46:46;17.00;97.10
26745;DHT22;14342;50.960;13.880;2023-01-01T03:47:48;16.90;97.20
26745;DHT22;14342;50.960;13.880;2023-01-01T03:48:49;16.90;97.00
26745;DHT22;14342;50.960;13.880;2023-01-01T03:49:57;16.90;97.10
26745;DHT22;14342;50.960;13.880;2023-01-01T03:51:01;16.80;97.10
26745;DHT22;14342;50.960;13.880;2023-01-01T03:52:20;16.90;97.20
26745;DHT22;14342;50.960;13.880;2023-01-01T03:53:24;16.90;96.70
26745;DHT22;14342;50.960;13.880;2023-01-01T03:54:32;16.80;96.90
26745;DHT22;14342;50.960;13.880;2023-01-01T03:55:35;16.90;97.00
26745;DHT22;14342;50.960;13.880;2023-01-01T03:56:38;16.90;96.80
26745;DHT22;14342;50.960;13.880;2023-01-01T03:57:42;16.90;96.60
26745;DHT22;14342;50.960;13.880;2023-01-01T03:58:44;16.90;96.60
26745;DHT22;14342;50.960;13.880;2023-01-01T03:59:51;16.90;96.50
26745;DHT22;14342;50.960;13.880;2023-01-01T04:00:54;16.90;96.50
26745;DHT22;14342;50.960;13.880;2023-01-01T04:01:56;16.90;96.60
26745;DHT22;14342;50.960;13.880;2023-01-01T04:02:58;16.90;96.50
26745;DHT22;14342;50.960;13.880;2023-01-01T04:03:59;16.90;96.70
26745;DHT22;14342;50.960;13.880;2023-01-01T04:05:01;16.80;96.40
26745;DHT22;14342;50.960;13.880;2023-01-01T04:06:04;16.90;96.40
26745;DHT22;14342;50.960;13.880;2023-01-01T04:07:06;16.90;96.60
26745;DHT22;14342;50.960;13.880;2023-01-01T04:08:07;17.00;96.40
26745;DHT22;14342;50.960;13.880;2023-01-01T04:09:11;16.90;96.30
26745;DHT22;14342;50.960;13.880;2023-01-01T04:10:12;16.90;96.20
26745;DHT22;14342;50.960;13.880;2023-01-01T04:11:20;16.90;96.10
26745;DHT22;14342;50.960;13.880;2023-01-01T04:12:41;16.90;96.20
26745;DHT22;14342;50.960;13.880;2023-01-01T04:13:46;16.90;95.90
26745;DHT22;14342;50.960;13.880;2023-01-01T04:14:47;16.90;95.80
26745;DHT22;14342;50.960;13.880;2023-01-01T04:15:48;17.10;96.10
26745;DHT22;14342;50.960;13.880;2023-01-01T04:16:49;17.00;95.90
26745;DHT22;14342;50.960;13.880;2023-01-01T04:17:51;17.00;95.90
26745;DHT22;14342;50.960;13.880;2023-01-01T04:18:53;17.00;95.80
26745;DHT22;14342;50.960;13.880;2023-01-01T04:19:53;17.00;95.70
26745;DHT22;14342;50.960;13.880;2023-01-01T04:20:55;17.00;95.60
26745;DHT22;14342;50.960;13.880;2023-01-01T04:21:55;17.00;95.70
26745;DHT22;14342;50.960;13.880;2023-01-01T04:22:57;16.90;95.60
26745;DHT22;14342;50.960;13.880;2023-01-01T04:24:00;16.90;95.70
26745;DHT22;14342;50.960;13.880;2023-01-01T04:25:01;17.00;95.70
26745;DHT22;14342;50.960;13.880;2023-01-01T04:26:02;17.00;95.80
26745;DHT22;14342;50.960;13.880;2023-01-01T04:27:03;16.90;95.50
26745;DHT22;14342;50.960;13.880;2023-01-01T04:28:04;17.00;95.60
26745;DHT22;14342;50.960;13.880;2023-01-01T04:29:05;16.90;95.60
26745;DHT22;14342;50.960;13.880;2023-01-01T04:30:07;16.90;95.30
26745;DHT22;14342;50.960;13.880;2023-01-01T04:31:09;16.90;95.60
26745;DHT22;14342;50.960;13.880;2023-01-01T04:32:10;16.90;95.50
26745;DHT22;14342;50.960;13.880;2023-01-01T04:33:12;16.90;95.50
26745;DHT22;14342;50.960;13.880;2023-01-01T04:34:13;16.90;95.40
26745;DHT22;14342;50.960;13.880;2023-01-01T04:35:14;16.90;95.50
26745;DHT22;14342;50.960;13.880;2023-01-01T04:36:15;16.90;95.50
26745;DHT22;14342;50.960;13.880;2023-01-01T04:37:17;16.90;95.50
26745;DHT22;14342;50.960;13.880;2023-01-01T04:38:18;16.90;95.40
26745;DHT22;14342;50.960;13.880;2023-01-01T04:39:20;16.90;95.10
26745;DHT22;14342;50.960;13.880;2023-01-01T04:40:22;16.90;94.90
26745;DHT22;14342;50.960;13.880;2023-01-01T04:41:22;16.90;95.10
26745;DHT22;14342;50.960;13.880;2023-01-01T04:42:24;16.90;95.00
26745;DHT22;14342;50.960;13.880;2023-01-01T04:43:24;16.90;95.20
26745;DHT22;14342;50.960;13.880;2023-01-01T04:44:26;16.80;95.00
26745;DHT22;14342;50.960;13.880;2023-01-01T04:45:26;16.80;95.00
26745;DHT22;14342;50.960;13.880;2023-01-01T04:46:28;16.80;95.20
26745;DHT22;14342;50.960;13.880;2023-01-01T04:47:29;16.80;95.00
26745;DHT22;14342;50.960;13.880;2023-01-01T04:48:30;16.80;94.80
26745;DHT22;14342;50.960;13.880;2023-01-01T04:49:32;16.80;94.90
26745;DHT22;14342;50.960;13.880;2023-01-01T04:50:34;16.70;94.70
26745;DHT22;14342;50.960;13.880;2023-01-01T04:51:35;16.70;94.80
26745;DHT22;14342;50.960;13.880;2023-01-01T04:52:36;16.90;94.90
26745;DHT22;14342;50.960;13.880;2023-01-01T04:53:37;16.80;94.50
26745;DHT22;14342;50.960;13.880;2023-01-01T04:54:39;16.80;94.40
26745;DHT22;14342;50.960;13.880;2023-01-01T04:55:40;16.80;94.30
26745;DHT22;14342;50.960;13.880;2023-01-01T04:56:42;16.90;94.20
26745;DHT22;14342;50.960;13.880;2023-01-01T04:57:42;17.00;94.10
26745;DHT22;14342;50.960;13.880;2023-01-01T04:58:44;17.00;94.00
26745;DHT22;14342;50.960;13.880;2023-01-01T04:59:44;17.00;93.90
26745;DHT22;14342;50.960;13.880;2023-01-01T05:00:49;17.00;93.90
26745;DHT22;14342;50.960;13.880;2023-01-01T05:01:50;16.90;93.70
26745;DHT22;14342;50.960;13.880;2023-01-01T05:02:51;17.00;93.70
26745;DHT22;14342;50.960;13.880;2023-01-01T05:03:52;17.00;94.50
26745;DHT22;14342;50.960;13.880;2023-01-01T05:04:53;17.00;95.80
26745;DHT22;14342;50.960;13.880;2023-01-01T05:06:00;16.90;96.70
26745;DHT22;14342;50.960;13.880;2023-01-01T05:07:02;16.70;97.50
26745;DHT22;14342;50.960;13.880;2023-01-01T05:08:02;16.50;98.30
26745;DHT22;14342;50.960;13.880;2023-01-01T05:09:04;16.30;99.10
26745;DHT22;14342;50.960;13.880;2023-01-01T05:10:07;16.20;99.90
26745;DHT22;14342;50.960;13.880;2023-01-01T05:11:10;15.90;99.90
26745;DHT22;14342;50.960;13.880;2023-01-01T05:12:11;15.80;99.90
26745;DHT22;14342;50.960;13.880;2023-01-01T05:13:12;15.80;99.90
26745;DHT22;14342;50.960;13.880;2023-01-01T05:14:13;15.70;99.90
26745;DHT22;14342;50.960;13.880;2023-01-01T05:15:15;15.60;99.90
26745;DHT22;14342;50.960;13.880;2023-01-01T05:16:16;15.50;99.90
26745;DHT22;14342;50.960;13.880;2023-01-01T05:17:18;15.50;99.90
26745;DHT22;14342;50.960;13.880;2023-01-01T05:18:18;15.50;99.90
26745;DHT22;14342;50.960;13.880;2023-01-01T05:19:20;15.50;99.90
26745;DHT22;14342;50.960;13.880;2023-01-01T05:20:22;15.40;99.90
26745;DHT22;14342;50.960;13.880;2023-01-01T05:21:23;15.40;99.90
26745;DHT22;14342;50.960;13.880;2023-01-01T05:22:25;15.40;99.90
26745;DHT22;14342;50.960;13.880;2023-01-01T05:23:26;15.60;99.90
26745;DHT22;14342;50.960;13.880;2023-01-01T05:24:27;15.50;99.90
26745;DHT22;14342;50.960;13.880;2023-01-01T05:25:32;15.60;99.90
26745;DHT22;14342;50.960;13.880;2023-01-01T05:26:34;15.50;99.90
26745;DHT22;14342;50.960;13.880;2023-01-01T05:27:35;15.50;99.90
26745;DHT22;14342;50.960;13.880;2023-01-01T05:28:36;15.60;99.90
26745;DHT22;14342;50.960;13.880;2023-01-01T05:29:37;15.50;99.90
26745;DHT22;14342;50.960;13.880;2023-01-01T05:30:39;15.40;99.90
26745;DHT22;14342;50.960;13.880;2023-01-01T05:31:39;15.50;99.90
26745;DHT22;14342;50.960;13.880;2023-01-01T05:32:41;15.40;99.90
26745;DHT22;14342;50.960;13.880;2023-01-01T05:33:44;15.50;99.90
26745;DHT22;14342;50.960;13.880;2023-01-01T05:34:46;15.50;99.90
26745;DHT22;14342;50.960;13.880;2023-01-01T05:35:51;15.40;99.90
26745;DHT22;14342;50.960;13.880;2023-01-01T05:36:53;15.50;99.90
26745;DHT22;14342;50.960;13.880;2023-01-01T05:37:55;15.50;99.90
26745;DHT22;14342;50.960;13.880;2023-01-01T05:38:56;15.60;99.90
26745;DHT22;14342;50.960;13.880;2023-01-01T05:39:57;15.60;99.90
26745;DHT22;14342;50.960;13.880;2023-01-01T05:41:03;15.50;99.90
26745;DHT22;14342;50.960;13.880;2023-01-01T05:42:05;15.50;99.90
26745;DHT22;14342;50.960;13.880;2023-01-01T05:43:06;15.50;99.90
26745;DHT22;14342;50.960;13.880;2023-01-01T05:44:07;15.50;99.90
26745;DHT22;14342;50.960;13.880;2023-01-01T05:45:09;15.50;99.90
26745;DHT22;14342;50.960;13.880;2023-01-01T05:46:12;15.50;99.90
26745;DHT22;14342;50.960;13.880;2023-01-01T05:47:13;15.50;99.90
26745;DHT22;14342;50.960;13.880;2023-01-01T05:48:17;15.60;99.90
26745;DHT22;14342;50.960;13.880;2023-01-01T05:49:18;15.70;99.90
26745;DHT22;14342;50.960;13.880;2023-01-01T05:50:19;15.40;99.90
26745;DHT22;14342;50.960;13.880;2023-01-01T05:51:21;15.80;99.90
26745;DHT22;14342;50.960;13.880;2023-01-01T05:52:23;15.80;99.90
26745;DHT22;14342;50.960;13.880;2023-01-01T05:53:24;15.70;99.80
26745;DHT22;14342;50.960;13.880;2023-01-01T05:54:25;15.70;99.70
26745;DHT22;14342;50.960;13.880;2023-01-01T05:55:26;15.80;99.50
26745;DHT22;14342;50.960;13.880;2023-01-01T05:56:29;15.80;99.20
26745;DHT22;14342;50.960;13.880;2023-01-01T05:57:29;15.80;99.00
26745;DHT22;14342;50.960;13.880;2023-01-01T05:58:31;15.90;98.90
26745;DHT22;14342;50.960;13.880;2023-01-01T05:59:32;15.90;98.80
26745;DHT22;14342;50.960;13.880;2023-01-01T06:00:34;15.90;99.00
26745;DHT22;14342;50.960;13.880;2023-01-01T06:01:34;15.90;98.60
26745;DHT22;14342;50.960;13.880;2023-01-01T06:02:36;15.90;98.90
26745;DHT22;14342;50.960;13.880;2023-01-01T06:03:36;15.90;98.70
26745;DHT22;14342;50.960;13.880;2023-01-01T06:04:38;15.90;98.70
26745;DHT22;14342;50.960;13.880;2023-01-01T06:05:38;15.90;98.70
26745;DHT22;14342;50.960;13.880;2023-01-01T06:06:40;15.90;98.70
26745;DHT22;14342;50.960;13.880;2023-01-01T06:07:41;15.90;98.60
26745;DHT22;14342;50.960;13.880;2023-01-01T06:08:47;15.90;98.70
26745;DHT22;14342;50.960;13.880;2023-01-01T06:09:48;15.90;98.80
26745;DHT22;14342;50.960;13.880;2023-01-01T06:10:56;15.90;98.90
26745;DHT22;14342;50.960;13.880;2023-01-01T06:11:58;15.90;98.80
26745;DHT22;14342;50.960;13.880;2023-01-01T06:12:59;15.80;98.40
26745;DHT22;14342;50.960;13.880;2023-01-01T06:14:00;15.90;98.90
26745;DHT22;14342;50.960;13.880;2023-01-01T06:15:02;15.90;98.70
26745;DHT22;14342;50.960;13.880;2023-01-01T06:16:02;16.00;98.80
26745;DHT22;14342;50.960;13.880;2023-01-01T06:17:04;15.90;98.60
26745;DHT22;14342;50.960;13.880;2023-01-01T06:18:05;16.00;98.70
26745;DHT22;14342;50.960;13.880;2023-01-01T06:19:06;16.00;98.80
26745;DHT22;14342;50.960;13.880;2023-01-01T06:20:07;15.90;98.50
26745;DHT22;14342;50.960;13.880;2023-01-01T06:21:09;15.90;98.50
26745;DHT22;14342;50.960;13.880;2023-01-01T06:22:10;15.90;98.70
26745;DHT22;14342;50.960;13.880;2023-01-01T06:23:12;16.00;98.60
26745;DHT22;14342;50.960;13.880;2023-01-01T06:24:12;16.00;98.60
26745;DHT22;14342;50.960;13.880;2023-01-01T06:25:17;16.00;98.50
26745;DHT22;14342;50.960;13.880;2023-01-01T06:26:19;16.00;98.70
26745;DHT22;14342;50.960;13.880;2023-01-01T06:27:22;16.10;98.80
26745;DHT22;14342;50.960;13.880;2023-01-01T06:28:22;16.10;98.80
26745;DHT22;14342;50.960;13.880;2023-01-01T06:29:24;16.10;98.70
26745;DHT22;14342;50.960;13.880;2023-01-01T06:30:25;16.10;98.70